Soldotna, AK

6:42 AM AKST on February 14, 2016 (GMT -0900)
W. Corral PWS | | Change Station
CLOSE
Current Station
Personal Weather Station
Location: Soldotna, AK
Elevation: 110 ft
Nearby Weather Stations

Elev 110 ft 60.49 °N, 151.08 °W | Updated 13 seconds ago

Partly Cloudy
Partly Cloudy
33.8 °F
Feels Like 34 °F
N
0.0
Wind Variable Wind from NW
Gusts 0.0 mph

Today
High -- | Low -- °F
--% Chance of Precip.
Yesterday
High -- | Low -- °F
Precip. -- in
Pressure 29.26 in
Visibility 10.0 miles
Clouds Few 11000 ft
Windchill 34 °F
Dew Point 26 °F
Humidity 74%
Rainfall 0.00 in
Snow Depth Not available.
8:47 AM 5:50 PM
Waxing Crescent, 42% visible
METAR PASX 141536Z AUTO 04007KT 10SM FEW110 01/M04 A2926 RMK AO1
Pressure 29.26 in
Visibility 10.0 miles
Clouds Few 11000 ft
Windchill 34 °F
Dew Point 26 °F
Humidity 74%
Rainfall 0.00 in
Snow Depth Not available.
8:47 AM 5:50 PM
Waxing Crescent, 42% visible
METAR PASX 141536Z AUTO 04007KT 10SM FEW110 01/M04 A2926 RMK AO1

10-Day Weather Forecast

Almanac

Astronomy

Feb. 14, 2016 Rise Set
Actual Time
Civil Twilight
Nautical Twilight
Astronomical Twilight
Moon
Length of Visible Light
Length of Day
Tomorrow will be .
, % of the Moon is Illuminated

Today's Extremes

State Highs State Lows

Community

WunderPhotos

Upload Photos

1,892,802 photos uploaded!

WunderBlog® & News

Nearby

Air Quality

  Air Quality AQ Index Pollutant
Not available.

Snow Depth

Station Depth Elevation

Earthquake Activity

City Distance Mag. Time & Date
Minimum magnitude displayed is 2.5.

Coastal Water Temperatures

Place Temperature

Stations

Nearby Weather Stations

Station Location Temp. Windchill Dew Point Humidity Wind Precip. Elev Updated Type
                   

Watches & Warnings

There are currently no watches in effect.